Terminal Aerodrome Forecast
Issued by NWS Upton, NY

Home | Current Version | Previous Version | Text Only | Print | Product List | Glossary On
Versions: 1 2 3 4 5 6 7 8 9 10 11 12 13 14 15 16 17 18 19 20 21 22 23 24 25 26 27 28 29 30 31 32 33 34 35 36 37
000
FTUS41 KOKX 211927 AAA
TAFJFK
TAF AMD
KJFK 211927Z 2119/2224 24008KT 4SM BR BKN006
     FM220100 25005KT 5SM BR SCT004 BKN008
      TEMPO 2202/2206 2SM BR OVC004
     FM220600 VRB02KT 1/2SM FG OVC004
     FM221400 VRB02KT 1SM BR OVC006
     FM221600 06008KT 4SM BR SCT006 OVC012
     FM222100 07014KT 4SM BR SCT006 OVC012=

USA.gov is the U.S. government's official web portal to all federal, state and local government web resources and services.